createdAt,value
2019-01-13T00:02:21.180Z,48.95
2019-01-13T00:04:48.443Z,48.94
2019-01-13T00:07:15.650Z,48.84
2019-01-13T00:09:42.964Z,48.84
2019-01-13T00:12:10.160Z,48.92
2019-01-13T00:14:37.361Z,49.05
2019-01-13T00:17:04.589Z,49.05
2019-01-13T00:19:31.754Z,49.22
2019-01-13T00:21:59.030Z,49.22
2019-01-13T00:24:26.240Z,49.10
2019-01-13T00:26:53.581Z,49.10
2019-01-13T00:29:20.769Z,48.69
2019-01-13T00:31:48.033Z,48.69
2019-01-13T00:34:15.231Z,48.96
2019-01-13T00:36:42.578Z,48.96
2019-01-13T00:39:09.822Z,48.89
2019-01-13T00:41:37.021Z,49.01
2019-01-13T00:44:04.302Z,48.98
2019-01-13T00:46:31.526Z,48.97
2019-01-13T00:48:58.847Z,48.94
2019-01-13T00:51:26.027Z,48.83
2019-01-13T00:53:53.216Z,48.83
2019-01-13T00:56:20.459Z,48.94
2019-01-13T00:58:47.690Z,48.94
2019-01-13T01:01:14.931Z,48.92
2019-01-13T01:03:42.137Z,48.91
2019-01-13T01:06:09.426Z,48.93
2019-01-13T01:08:36.638Z,48.86
2019-01-13T01:11:03.848Z,48.78
2019-01-13T01:13:31.087Z,48.78
2019-01-13T01:15:58.353Z,48.81
2019-01-13T01:18:25.579Z,48.80
2019-01-13T01:20:52.801Z,48.76
2019-01-13T01:23:21.118Z,48.87
2019-01-13T01:25:48.338Z,48.96
2019-01-13T01:28:15.574Z,48.79
2019-01-13T01:30:42.918Z,48.79
2019-01-13T01:33:10.159Z,48.84
2019-01-13T01:35:37.473Z,48.84
2019-01-13T01:38:04.690Z,48.79
2019-01-13T01:40:31.912Z,48.87
2019-01-13T01:42:59.210Z,48.87
2019-01-13T01:45:26.392Z,48.83
2019-01-13T01:47:53.621Z,48.85
2019-01-13T01:50:20.859Z,48.83
2019-01-13T01:52:48.066Z,48.77
2019-01-13T01:55:17.014Z,48.84
2019-01-13T01:57:44.395Z,48.47
2019-01-13T02:00:16.584Z,48.47
2019-01-13T02:02:43.754Z,48.69
2019-01-13T02:05:10.995Z,48.70
2019-01-13T02:07:38.211Z,48.77
2019-01-13T02:10:08.029Z,48.81
2019-01-13T02:12:35.245Z,48.78
2019-01-13T02:15:03.690Z,48.68
2019-01-13T02:17:30.863Z,48.66
2019-01-13T02:19:58.122Z,48.65
2019-01-13T02:22:25.319Z,48.67
2019-01-13T02:24:52.571Z,48.46
2019-01-13T02:27:19.768Z,48.46
2019-01-13T02:29:47.100Z,48.64
2019-01-13T02:32:14.311Z,48.66
2019-01-13T02:34:41.502Z,48.69
2019-01-13T02:37:08.759Z,48.69
2019-01-13T02:39:35.988Z,48.57
2019-01-13T02:42:03.232Z,48.62
2019-01-13T02:44:30.422Z,48.64
2019-01-13T02:46:57.641Z,48.64
2019-01-13T02:49:24.886Z,48.70
2019-01-13T02:51:52.135Z,48.70
2019-01-13T02:54:19.345Z,48.77
2019-01-13T02:56:46.586Z,48.57
2019-01-13T02:59:13.832Z,48.57
2019-01-13T03:01:40.998Z,48.71
2019-01-13T03:04:08.239Z,48.53
2019-01-13T03:06:35.460Z,48.53
2019-01-13T03:09:04.543Z,48.52
2019-01-13T03:11:31.758Z,48.48
2019-01-13T03:13:58.969Z,48.53
2019-01-13T03:16:26.185Z,48.53
2019-01-13T03:18:53.424Z,48.56
2019-01-13T03:21:20.694Z,48.36
2019-01-13T03:23:47.896Z,48.65
2019-01-13T03:26:15.123Z,48.65
2019-01-13T03:28:42.326Z,48.56
2019-01-13T03:31:12.092Z,48.72
2019-01-13T03:33:38.658Z,48.72
2019-01-13T03:36:05.842Z,48.45
2019-01-13T03:38:33.099Z,48.53
2019-01-13T03:41:00.281Z,48.59
2019-01-13T03:43:27.553Z,48.57
2019-01-13T03:45:54.766Z,48.65
2019-01-13T03:48:21.985Z,48.65
2019-01-13T03:50:49.227Z,48.25
2019-01-13T03:53:16.406Z,48.25
2019-01-13T03:55:43.743Z,48.48
2019-01-13T03:58:11.279Z,48.37
2019-01-13T04:00:38.524Z,48.76
2019-01-13T04:03:05.745Z,48.49
2019-01-13T04:05:33.061Z,48.49
2019-01-13T04:08:00.260Z,48.43
2019-01-13T04:10:27.429Z,48.56
2019-01-13T04:12:54.654Z,48.77
2019-01-13T04:15:59.551Z,48.77
2019-01-13T04:18:26.832Z,48.49
2019-01-13T04:20:54.080Z,48.36
2019-01-13T04:23:21.333Z,48.36
2019-01-13T04:25:48.578Z,48.91
2019-01-13T04:28:15.825Z,48.25
2019-01-13T04:30:43.039Z,48.54
2019-01-13T04:33:10.264Z,48.51
2019-01-13T04:35:37.444Z,48.51
2019-01-13T04:38:04.665Z,48.54
2019-01-13T04:40:31.914Z,48.54
2019-01-13T04:42:59.095Z,48.44
2019-01-13T04:45:26.315Z,48.44
2019-01-13T04:47:53.507Z,48.38
2019-01-13T04:50:20.723Z,48.55
2019-01-13T04:52:47.975Z,48.45
2019-01-13T04:55:15.195Z,48.45
2019-01-13T04:57:42.419Z,48.27
2019-01-13T05:00:12.757Z,48.26
2019-01-13T05:02:40.005Z,48.22
2019-01-13T05:05:07.713Z,48.09
2019-01-13T05:07:34.985Z,48.09
2019-01-13T05:10:02.346Z,48.28
2019-01-13T05:12:29.579Z,48.24
2019-01-13T05:14:56.815Z,48.28
2019-01-13T05:17:24.062Z,48.24
2019-01-13T05:19:51.277Z,48.24
2019-01-13T05:22:18.499Z,48.17
2019-01-13T05:24:45.697Z,48.17
2019-01-13T05:27:12.906Z,48.07
2019-01-13T05:29:40.080Z,48.13
2019-01-13T05:32:07.289Z,48.13
2019-01-13T05:34:34.517Z,48.16
2019-01-13T05:37:01.783Z,48.21
2019-01-13T05:39:29.001Z,48.21
2019-01-13T05:41:56.241Z,48.32
2019-01-13T05:44:23.463Z,48.32
2019-01-13T05:46:50.754Z,48.32
2019-01-13T05:49:17.983Z,48.13
2019-01-13T05:51:45.260Z,48.13
2019-01-13T05:54:12.513Z,48.57
2019-01-13T05:56:39.719Z,48.25
2019-01-13T05:59:06.981Z,48.00
2019-01-13T06:01:34.291Z,48.00
2019-01-13T06:04:01.487Z,48.17
2019-01-13T06:06:28.770Z,48.15
2019-01-13T06:08:55.995Z,48.15
2019-01-13T06:11:23.237Z,48.13
2019-01-13T06:13:50.427Z,48.13
2019-01-13T06:16:17.640Z,48.14
2019-01-13T06:18:44.852Z,48.20
2019-01-13T06:21:12.028Z,48.20
2019-01-13T06:23:39.263Z,48.35
2019-01-13T06:26:06.593Z,48.30
2019-01-13T06:28:33.774Z,48.30
2019-01-13T06:31:00.961Z,47.97
2019-01-13T06:33:28.214Z,47.97
2019-01-13T06:35:55.405Z,48.23
2019-01-13T06:38:22.625Z,48.12
2019-01-13T06:40:49.826Z,48.06
2019-01-13T06:43:17.207Z,48.06
2019-01-13T06:45:44.355Z,48.03
2019-01-13T06:48:11.555Z,48.05
2019-01-13T06:50:38.826Z,48.04
2019-01-13T06:53:06.045Z,48.07
2019-01-13T06:55:33.219Z,48.00
2019-01-13T06:58:00.409Z,48.00
2019-01-13T07:00:27.698Z,48.07
2019-01-13T07:02:55.075Z,48.05
2019-01-13T07:05:22.388Z,48.07
2019-01-13T07:07:49.628Z,48.07
2019-01-13T07:10:16.932Z,48.08
2019-01-13T07:12:44.127Z,48.02
2019-01-13T07:15:12.569Z,48.02
2019-01-13T07:17:39.775Z,48.04
2019-01-13T07:20:09.211Z,48.06
2019-01-13T07:22:36.400Z,48.04
2019-01-13T07:25:04.225Z,48.03
2019-01-13T07:27:31.446Z,47.95
2019-01-13T07:29:58.660Z,48.05
2019-01-13T07:32:25.833Z,48.00
2019-01-13T07:34:53.106Z,48.05
2019-01-13T07:37:20.307Z,48.07
2019-01-13T07:39:47.547Z,48.01
2019-01-13T07:42:14.766Z,47.98
2019-01-13T07:44:41.986Z,47.95
2019-01-13T07:47:09.220Z,47.93
2019-01-13T07:49:36.441Z,47.90
2019-01-13T07:52:03.700Z,47.91
2019-01-13T07:54:30.899Z,47.87
2019-01-13T07:56:58.139Z,47.95
2019-01-13T07:59:25.352Z,48.20
2019-01-13T08:01:52.595Z,48.24
2019-01-13T08:04:19.845Z,48.24
2019-01-13T08:06:47.063Z,48.23
2019-01-13T08:09:14.295Z,48.01
2019-01-13T08:11:41.510Z,48.01
2019-01-13T08:14:08.730Z,47.98
2019-01-13T08:16:35.905Z,48.00
2019-01-13T08:19:03.195Z,48.04
2019-01-13T08:21:30.436Z,48.02
2019-01-13T08:23:57.664Z,48.01
2019-01-13T08:26:24.845Z,47.99
2019-01-13T08:28:52.062Z,47.96
2019-01-13T08:31:19.266Z,47.99
2019-01-13T08:33:46.447Z,48.00
2019-01-13T08:36:13.766Z,47.97
2019-01-13T08:38:41.002Z,48.04
2019-01-13T08:41:08.263Z,48.02
2019-01-13T08:43:35.480Z,48.06
2019-01-13T08:46:02.750Z,48.12
2019-01-13T08:48:29.955Z,48.09
2019-01-13T08:50:57.212Z,48.24
2019-01-13T08:53:24.476Z,48.01
2019-01-13T08:55:51.884Z,48.08
2019-01-13T08:58:19.096Z,48.08
2019-01-13T09:00:46.294Z,48.03
2019-01-13T09:03:13.540Z,48.04
2019-01-13T09:05:40.759Z,48.04
2019-01-13T09:08:07.935Z,48.05
2019-01-13T09:10:35.220Z,48.06
2019-01-13T09:13:02.432Z,48.18
2019-01-13T09:15:29.674Z,48.21
2019-01-13T09:17:56.882Z,48.33
2019-01-13T09:20:28.579Z,48.11
2019-01-13T09:22:56.931Z,48.11
2019-01-13T09:25:24.143Z,48.31
2019-01-13T09:27:51.352Z,48.12
2019-01-13T09:30:23.366Z,48.25
2019-01-13T09:32:50.590Z,48.19
2019-01-13T09:35:17.812Z,48.24
2019-01-13T09:37:45.059Z,48.29
2019-01-13T09:40:14.243Z,48.37
2019-01-13T09:42:41.481Z,48.08
2019-01-13T09:45:09.404Z,48.08
2019-01-13T09:47:36.675Z,48.37
2019-01-13T09:50:05.088Z,48.02
2019-01-13T09:52:32.287Z,48.02
2019-01-13T09:54:59.607Z,48.22
2019-01-13T09:57:26.809Z,48.13
2019-01-13T09:59:53.995Z,48.13
2019-01-13T10:02:21.445Z,48.19
2019-01-13T10:04:48.698Z,48.22
2019-01-13T10:07:16.021Z,48.28
2019-01-13T10:09:43.253Z,48.25
2019-01-13T10:12:10.449Z,48.32
2019-01-13T10:14:37.654Z,48.30
2019-01-13T10:17:04.919Z,48.37
2019-01-13T10:19:32.100Z,48.51
2019-01-13T10:21:59.337Z,48.60
2019-01-13T10:24:26.574Z,48.60
2019-01-13T10:26:53.797Z,48.29
2019-01-13T10:29:21.038Z,48.31
2019-01-13T10:31:48.254Z,48.29
2019-01-13T10:34:15.442Z,48.26
2019-01-13T10:36:42.670Z,48.33
2019-01-13T10:39:09.831Z,48.29
2019-01-13T10:41:37.058Z,48.28
2019-01-13T10:44:04.273Z,48.23
2019-01-13T10:46:31.464Z,48.20
2019-01-13T10:48:58.829Z,48.22
2019-01-13T10:51:26.027Z,48.24
2019-01-13T10:53:53.208Z,48.31
2019-01-13T10:56:20.455Z,48.27
2019-01-13T10:58:47.652Z,48.21
2019-01-13T11:01:14.838Z,48.37
2019-01-13T11:03:42.064Z,48.29
2019-01-13T11:06:09.275Z,48.27
2019-01-13T11:08:36.498Z,48.27
2019-01-13T11:11:03.731Z,48.35
2019-01-13T11:13:30.923Z,48.37
2019-01-13T11:15:58.107Z,48.33
2019-01-13T11:18:25.319Z,48.44
2019-01-13T11:20:52.688Z,48.42
2019-01-13T11:23:19.886Z,48.44
2019-01-13T11:25:47.082Z,48.46
2019-01-13T11:28:14.389Z,48.57
2019-01-13T11:30:41.543Z,48.56
2019-01-13T11:33:09.714Z,48.56
2019-01-13T11:35:37.284Z,48.41
2019-01-13T11:38:04.667Z,48.40
2019-01-13T11:40:31.862Z,48.43
2019-01-13T11:42:59.085Z,48.39
2019-01-13T11:45:26.317Z,48.53
2019-01-13T11:47:53.668Z,48.54
2019-01-13T11:50:21.612Z,48.49
2019-01-13T11:52:48.939Z,48.55
2019-01-13T11:55:16.301Z,48.50
2019-01-13T11:57:43.520Z,48.51
2019-01-13T12:00:19.525Z,48.49
2019-01-13T12:02:46.721Z,48.38
2019-01-13T12:05:14.314Z,48.54
2019-01-13T12:07:42.427Z,48.54
2019-01-13T12:10:11.603Z,48.36
2019-01-13T12:12:38.898Z,48.38
2019-01-13T12:15:08.981Z,48.38
2019-01-13T12:17:36.203Z,48.52
2019-01-13T12:20:04.245Z,48.79
2019-01-13T12:22:31.502Z,48.04
2019-01-13T12:24:58.682Z,48.04
2019-01-13T12:27:25.967Z,48.50
2019-01-13T12:29:53.174Z,48.42
2019-01-13T12:32:20.414Z,48.42
2019-01-13T12:34:47.621Z,48.62
2019-01-13T12:37:14.842Z,48.53
2019-01-13T12:39:42.086Z,48.47
2019-01-13T12:42:09.297Z,48.47
2019-01-13T12:44:36.669Z,48.54
2019-01-13T12:47:03.883Z,48.60
2019-01-13T12:49:31.119Z,48.49
2019-01-13T12:51:58.497Z,48.47
2019-01-13T12:54:25.696Z,48.36
2019-01-13T12:56:52.871Z,48.36
2019-01-13T12:59:20.095Z,48.29
2019-01-13T13:01:47.300Z,48.43
2019-01-13T13:04:14.483Z,48.38
2019-01-13T13:06:41.731Z,48.18
2019-01-13T13:09:09.019Z,48.25
2019-01-13T13:11:36.489Z,48.28
2019-01-13T13:14:03.697Z,48.29
2019-01-13T13:16:30.886Z,48.38
2019-01-13T13:18:58.115Z,48.43
2019-01-13T13:21:25.331Z,48.41
2019-01-13T13:23:52.573Z,48.32
2019-01-13T13:26:19.805Z,48.91
2019-01-13T13:28:47.045Z,48.29
2019-01-13T13:31:14.280Z,48.19
2019-01-13T13:33:41.528Z,48.19
2019-01-13T13:36:10.635Z,48.53
2019-01-13T13:38:37.878Z,48.53
2019-01-13T13:41:05.098Z,48.20
2019-01-13T13:43:31.960Z,48.68
2019-01-13T13:45:59.855Z,48.68
2019-01-13T13:48:27.034Z,48.40
2019-01-13T13:50:54.308Z,48.58
2019-01-13T13:53:21.533Z,48.42
2019-01-13T13:55:48.752Z,48.41
2019-01-13T13:58:15.958Z,48.57
2019-01-13T14:00:43.149Z,48.42
2019-01-13T14:03:10.402Z,48.46
2019-01-13T14:05:37.657Z,48.46
2019-01-13T14:08:05.510Z,48.47
2019-01-13T14:10:40.730Z,48.50
2019-01-13T14:13:08.058Z,48.51
2019-01-13T14:15:35.265Z,48.54
2019-01-13T14:18:02.495Z,48.53
2019-01-13T14:20:29.757Z,48.59
2019-01-13T14:22:56.979Z,48.62
2019-01-13T14:25:24.219Z,48.67
2019-01-13T14:27:51.371Z,48.67
2019-01-13T14:30:23.654Z,48.84
2019-01-13T14:32:50.876Z,48.84
2019-01-13T14:35:18.222Z,48.82
2019-01-13T14:37:45.430Z,48.82
2019-01-13T14:40:15.125Z,48.83
2019-01-13T14:42:42.370Z,49.01
2019-01-13T14:45:12.476Z,49.01
2019-01-13T14:47:39.712Z,48.86
2019-01-13T14:50:09.323Z,49.13
2019-01-13T14:52:36.665Z,48.90
2019-01-13T14:55:04.278Z,48.96
2019-01-13T14:57:31.477Z,49.10
2019-01-13T14:59:58.740Z,48.83
2019-01-13T15:02:25.975Z,48.83
2019-01-13T15:04:53.207Z,48.96
2019-01-13T15:07:20.370Z,48.97
2019-01-13T15:09:47.664Z,48.99
2019-01-13T15:12:14.855Z,49.21
2019-01-13T15:14:42.093Z,48.89
2019-01-13T15:17:09.425Z,48.89
2019-01-13T15:19:36.666Z,48.80
2019-01-13T15:22:03.948Z,49.07
2019-01-13T15:24:31.164Z,49.00
2019-01-13T15:26:58.384Z,49.00
2019-01-13T15:29:25.643Z,48.76
2019-01-13T15:31:52.843Z,48.76
2019-01-13T15:34:20.083Z,48.86
2019-01-13T15:36:47.315Z,48.75
2019-01-13T15:39:14.621Z,48.75
2019-01-13T15:41:41.846Z,48.76
2019-01-13T15:44:09.046Z,48.76
2019-01-13T15:46:36.271Z,48.89
2019-01-13T15:49:03.607Z,48.94
2019-01-13T15:51:30.899Z,48.94
2019-01-13T15:53:58.102Z,48.76
2019-01-13T15:56:25.317Z,49.02
2019-01-13T15:58:52.566Z,49.02
2019-01-13T16:01:19.817Z,48.89
2019-01-13T16:03:47.028Z,49.13
2019-01-13T16:06:14.270Z,49.13
2019-01-13T16:08:41.481Z,48.54
2019-01-13T16:11:08.726Z,48.57
2019-01-13T16:13:35.994Z,48.65
2019-01-13T16:16:03.174Z,48.65
2019-01-13T16:18:30.414Z,48.63
2019-01-13T16:20:57.661Z,49.09
2019-01-13T16:23:24.889Z,48.90
2019-01-13T16:25:52.105Z,48.80
2019-01-13T16:28:19.349Z,48.72
2019-01-13T16:30:46.562Z,48.72
2019-01-13T16:33:13.790Z,48.70
2019-01-13T16:35:41.117Z,48.46
2019-01-13T16:38:08.378Z,48.76
2019-01-13T16:40:35.598Z,48.76
2019-01-13T16:43:02.936Z,48.79
2019-01-13T16:45:30.127Z,48.76
2019-01-13T16:47:57.331Z,49.01
2019-01-13T16:50:25.689Z,48.59
2019-01-13T16:52:56.874Z,48.59
2019-01-13T16:55:25.171Z,48.74
2019-01-13T16:57:52.453Z,48.74
2019-01-13T17:00:21.470Z,48.59
2019-01-13T17:02:48.667Z,48.59
2019-01-13T17:05:17.119Z,48.81
2019-01-13T17:07:44.287Z,48.80
2019-01-13T17:10:13.752Z,48.76
2019-01-13T17:12:40.968Z,48.88
2019-01-13T17:15:09.611Z,48.94
2019-01-13T17:17:36.978Z,48.94
2019-01-13T17:20:06.143Z,48.57
2019-01-13T17:22:33.329Z,48.85
2019-01-13T17:25:00.557Z,48.85
2019-01-13T17:27:27.766Z,48.80
2019-01-13T17:29:54.973Z,48.74
2019-01-13T17:32:22.165Z,48.74
2019-01-13T17:34:49.393Z,48.60
2019-01-13T17:37:16.629Z,48.60
2019-01-13T17:39:43.832Z,48.71
2019-01-13T17:42:11.164Z,48.71
2019-01-13T17:44:38.373Z,48.72
2019-01-13T17:47:05.565Z,48.72
2019-01-13T17:49:32.809Z,48.73
2019-01-13T17:52:00.037Z,48.69
2019-01-13T17:54:27.256Z,48.67
2019-01-13T17:56:54.495Z,48.62
2019-01-13T17:59:21.714Z,48.65
2019-01-13T18:01:52.910Z,48.78
2019-01-13T18:04:20.099Z,48.78
2019-01-13T18:06:47.262Z,48.73
2019-01-13T18:09:14.520Z,48.74
2019-01-13T18:11:41.694Z,48.89
2019-01-13T18:14:08.951Z,48.52
2019-01-13T18:16:36.167Z,48.84
2019-01-13T18:19:03.356Z,48.84
2019-01-13T18:21:30.627Z,48.84
2019-01-13T18:23:57.824Z,48.84
2019-01-13T18:26:25.085Z,48.82
2019-01-13T18:28:52.290Z,48.92
2019-01-13T18:31:19.461Z,48.88
2019-01-13T18:33:46.659Z,48.91
2019-01-13T18:36:13.879Z,48.91
2019-01-13T18:38:41.080Z,48.91
2019-01-13T18:41:08.311Z,48.92
2019-01-13T18:43:35.553Z,48.81
2019-01-13T18:46:02.788Z,48.81
2019-01-13T18:48:30.023Z,48.72
2019-01-13T18:50:57.243Z,48.72
2019-01-13T18:53:24.495Z,48.83
2019-01-13T18:55:51.738Z,49.03
2019-01-13T18:58:18.972Z,49.03
2019-01-13T19:00:46.223Z,48.88
2019-01-13T19:03:13.461Z,48.78
2019-01-13T19:05:40.659Z,48.80
2019-01-13T19:08:07.865Z,48.82
2019-01-13T19:10:59.684Z,48.84
2019-01-13T19:14:16.353Z,48.62
2019-01-13T19:17:08.870Z,48.62
2019-01-13T19:19:45.841Z,48.87
2019-01-13T19:22:13.005Z,48.70
2019-01-13T19:24:40.263Z,48.80
2019-01-13T19:27:07.434Z,48.72
2019-01-13T19:29:34.880Z,48.38
2019-01-13T19:32:02.114Z,48.83
2019-01-13T19:34:29.318Z,48.83
2019-01-13T19:36:56.524Z,48.49
2019-01-13T19:39:23.774Z,48.49
2019-01-13T19:41:51.196Z,48.49
2019-01-13T19:44:18.438Z,48.74
2019-01-13T19:46:45.766Z,48.43
2019-01-13T19:49:12.993Z,48.48
2019-01-13T19:51:40.192Z,48.48
2019-01-13T19:54:07.462Z,48.55
2019-01-13T19:56:34.682Z,48.64
2019-01-13T19:59:01.968Z,48.64
2019-01-13T20:01:29.209Z,48.78
2019-01-13T20:03:56.646Z,48.93
2019-01-13T20:06:23.833Z,48.93
2019-01-13T20:08:51.114Z,49.08
2019-01-13T20:11:18.454Z,49.01
2019-01-13T20:13:45.643Z,49.00
2019-01-13T20:16:12.835Z,49.20
2019-01-13T20:18:40.622Z,49.20
2019-01-13T20:21:07.861Z,49.24
2019-01-13T20:23:35.091Z,49.10
2019-01-13T20:26:02.299Z,49.10
2019-01-13T20:28:29.514Z,48.79
2019-01-13T20:30:56.789Z,49.23
2019-01-13T20:33:24.127Z,49.20
2019-01-13T20:35:51.615Z,49.38
2019-01-13T20:38:18.935Z,49.66
2019-01-13T20:40:46.201Z,49.66
2019-01-13T20:43:13.404Z,49.99
2019-01-13T20:45:41.588Z,49.99
2019-01-13T20:48:08.769Z,49.96
2019-01-13T20:50:36.055Z,50.75
2019-01-13T20:53:03.430Z,50.75
2019-01-13T20:55:30.644Z,50.36
2019-01-13T20:57:57.857Z,50.29
2019-01-13T21:00:25.199Z,50.20
2019-01-13T21:02:52.456Z,50.11
2019-01-13T21:05:26.297Z,50.25
2019-01-13T21:07:48.971Z,50.41
2019-01-13T21:10:16.459Z,50.43
2019-01-13T21:12:43.700Z,50.43
2019-01-13T21:15:13.631Z,50.41
2019-01-13T21:17:40.913Z,50.41
2019-01-13T21:20:08.127Z,50.38
2019-01-13T21:22:35.419Z,50.59
2019-01-13T21:25:02.623Z,50.30
2019-01-13T21:27:29.973Z,50.12
2019-01-13T21:30:01.333Z,50.74
2019-01-13T21:32:26.311Z,50.63
2019-01-13T21:34:53.606Z,50.63
2019-01-13T21:37:20.783Z,50.72
2019-01-13T21:39:48.067Z,50.34
2019-01-13T21:42:15.264Z,51.02
2019-01-13T21:44:42.446Z,51.02
2019-01-13T21:47:09.680Z,50.37
2019-01-13T21:49:36.880Z,50.60
2019-01-13T21:52:04.183Z,50.42
2019-01-13T21:54:31.414Z,50.39
2019-01-13T21:56:58.612Z,50.39
2019-01-13T21:59:25.851Z,50.52
2019-01-13T22:01:53.087Z,50.47
2019-01-13T22:04:20.340Z,50.42
2019-01-13T22:06:47.796Z,50.91
2019-01-13T22:09:15.010Z,50.91
2019-01-13T22:11:42.284Z,51.32
2019-01-13T22:14:09.479Z,51.32
2019-01-13T22:16:36.697Z,51.11
2019-01-13T22:19:03.910Z,50.96
2019-01-13T22:21:31.255Z,50.80
2019-01-13T22:23:58.451Z,51.05
2019-01-13T22:26:25.634Z,50.80
2019-01-13T22:28:52.849Z,50.59
2019-01-13T22:31:22.447Z,50.98
2019-01-13T22:33:49.201Z,50.34
2019-01-13T22:36:16.549Z,50.34
2019-01-13T22:38:43.834Z,51.32
2019-01-13T22:41:11.641Z,51.32
2019-01-13T22:43:38.850Z,51.41
2019-01-13T22:46:06.149Z,51.41
2019-01-13T22:48:34.338Z,51.57
2019-01-13T22:51:02.043Z,51.48
2019-01-13T22:53:29.299Z,51.11
2019-01-13T22:55:56.521Z,51.08
2019-01-13T22:58:23.804Z,51.18
2019-01-13T23:01:44.383Z,51.23
2019-01-13T23:04:13.410Z,51.09
2019-01-13T23:06:40.659Z,51.40
2019-01-13T23:09:08.963Z,51.56
2019-01-13T23:11:36.374Z,51.49
2019-01-13T23:14:03.882Z,51.49
2019-01-13T23:16:31.130Z,51.33
2019-01-13T23:18:58.512Z,51.13
2019-01-13T23:21:25.726Z,51.13
2019-01-13T23:23:53.078Z,51.34
2019-01-13T23:26:20.623Z,51.34
2019-01-13T23:28:47.845Z,51.03
2019-01-13T23:31:15.090Z,51.11
2019-01-13T23:33:42.287Z,51.14
2019-01-13T23:36:09.527Z,51.06
2019-01-13T23:38:36.886Z,51.49
2019-01-13T23:41:04.381Z,51.49
2019-01-13T23:43:31.661Z,51.25
2019-01-13T23:45:58.842Z,51.25
2019-01-13T23:48:26.259Z,51.33
2019-01-13T23:50:53.623Z,51.87
2019-01-13T23:53:20.873Z,51.87
2019-01-13T23:55:48.086Z,51.21
2019-01-13T23:58:15.353Z,51.17
